Terminal Aerodrome Forecast
Issued by NWS

Home | Current Version | Previous Version | Text Only | Print | Product List | Glossary On
Versions: 1 2 3 4 5 6 7 8 9 10 11 12 13 14 15 16 17 18 19 20 21 22 23 24 25 26 27 28 29
923
FTUS46 KMTR 220318 AAA
TAFSFO
TAF AMD
KSFO 220318Z 2203/2306 29013KT P6SM FEW012 BKN025
     FM220400 29008KT P6SM FEW012 BKN025
     FM220600 26005KT P6SM OVC010
     FM221800 26006KT P6SM FEW012
     FM222000 30011KT P6SM SKC
     FM222200 29015KT P6SM SKC=

USA.gov is the U.S. government's official web portal to all federal, state and local government web resources and services.